Flight Number: EUR3071 Duration: 12:00
Departure: Rio de Janeiro (SBGL) at 18:30 Distance: 4985 Nm
Arrival: Gatwick Airport (EGKK) at 06:30 Equipment: A340

Weather Information
Galeao, Brazil (SBGL) 22-49S 043-15W 42M Jan 21, 2019 - 07:00 AM EST / 2019.01.21 1200 UTC
Wind: from the NNE (030 degrees) at 8 MPH (7 KT):0
Visibility: greater than 7 mile(s):0 Temperature: 84 F (29 C) Dew Point: 75 F (24 C) Relative Humidity: 74% Pressure (altimeter): 29.94 in. Hg (1014 hPa)
ob: SBGL 211200Z 03007KT CAVOK 29/24 Q1014 cycle: 12
Sunrise: 08:28 Sunset: 21:40 (UTC)

London / Gatwick Airport, United Kingdom (EGKK) 51-09N 000-11W 0M Jan 21, 2019 - 07:20 AM EST / 2019.01.21 1220 UTC
Wind: Variable at 2 MPH (2 KT):0
Visibility: 3 mile(s):0
Sky conditions: mostly clear Weather: haze Temperature: 41 F (5 C) Dew Point: 35 F (2 C) Relative Humidity: 80% Pressure (altimeter): 30.21 in. Hg (1023 hPa)
ob: EGKK 211220Z VRB02KT 5000 HZ FEW031 05/02 Q1023 cycle: 12
Sunrise: 07:56 Sunset: 16:27 (UTC)

TAF:2019/01/21 12:06 TAF EGKK 211057Z 2112/2218 20006KT 1400 BR FEW001 SCT030 BECMG 2112/2115 9999 NSW PROB40 2112/2113 BKN001 PROB40 TEMPO 2115/2122 6000 TEMPO 2122/2205 6000 -RADZ BKN012 PROB30 TEMPO 2200/2204 19015G25KT 4000 RA BKN007 BECMG 2203/2206 28010KT TEMPO 2213/2218 6000 -SHRA BKN010 PROB30 TEMPO 2213/2218 3000 SHRA -SHRASN BKN005

Previous Pireps for this route
Date Aircraft Flight time Fuel used Landing rate On time
2015-06-23B74710.31283502-12Charter
2015-06-26B74711.46301897-93Charter
(pireps marked green are flown by you)

Route map